createdAt,value
2023-03-26T00:01:15.770Z,98930.02
2023-03-26T00:03:45.245Z,98928.50
2023-03-26T00:06:17.184Z,98926.52
2023-03-26T00:08:45.302Z,98921.28
2023-03-26T00:11:13.713Z,98919.11
2023-03-26T00:13:43.317Z,98917.16
2023-03-26T00:16:15.366Z,98914.61
2023-03-26T00:18:43.325Z,98910.75
2023-03-26T00:21:15.079Z,98911.81
2023-03-26T00:23:42.690Z,98912.23
2023-03-26T00:26:12.787Z,98901.54
2023-03-26T00:28:41.111Z,98900.73
2023-03-26T00:31:10.696Z,98898.15
2023-03-26T00:33:57.637Z,98905.19
2023-03-26T00:36:25.045Z,98898.92
2023-03-26T00:38:53.722Z,98897.66
2023-03-26T00:41:24.554Z,98900.16
2023-03-26T00:43:58.137Z,98898.77
2023-03-26T00:46:25.768Z,98886.73
2023-03-26T00:48:53.009Z,98889.79
2023-03-26T00:51:20.827Z,98882.44
2023-03-26T00:53:50.013Z,98876.77
2023-03-26T00:56:19.167Z,98887.63
2023-03-26T00:58:47.608Z,98876.40
2023-03-26T01:01:20.413Z,98879.53
2023-03-26T01:04:01.227Z,98889.57
2023-03-26T01:06:35.664Z,98887.24
2023-03-26T01:09:15.962Z,98886.92
2023-03-26T01:11:43.838Z,98888.88
2023-03-26T01:14:12.821Z,98878.45
2023-03-26T01:16:57.967Z,98881.41
2023-03-26T01:19:55.667Z,98879.77
2023-03-26T01:22:24.263Z,98876.96
2023-03-26T01:24:57.396Z,98875.44
2023-03-26T01:27:47.683Z,98869.95
2023-03-26T01:33:49.834Z,98854.55
2023-03-26T01:36:26.076Z,98851.96
2023-03-26T01:39:08.460Z,98845.92
2023-03-26T01:41:51.669Z,98847.71
2023-03-26T01:44:43.666Z,98848.56
2023-03-26T01:47:11.866Z,98849.20
2023-03-26T01:49:39.753Z,98847.52
2023-03-26T01:52:20.547Z,98829.59
2023-03-26T01:54:47.822Z,98849.74
2023-03-26T01:57:22.274Z,98850.06
2023-03-26T02:00:09.358Z,98851.92
2023-03-26T02:02:55.061Z,98850.33
2023-03-26T02:05:25.236Z,98846.16
2023-03-26T02:08:03.672Z,98839.22
2023-03-26T02:10:34.202Z,98843.62
2023-03-26T02:13:07.908Z,98837.10
2023-03-26T02:15:36.051Z,98841.66
2023-03-26T02:18:04.613Z,98836.16
2023-03-26T02:20:32.430Z,98838.70
2023-03-26T02:23:00.680Z,98832.30
2023-03-26T02:25:35.538Z,98832.14
2023-03-26T02:28:03.369Z,98828.77
2023-03-26T02:30:34.929Z,98822.55
2023-03-26T02:33:04.269Z,98818.86
2023-03-26T02:35:40.518Z,98824.67
2023-03-26T02:38:14.549Z,98825.79
2023-03-26T02:40:45.360Z,98829.17
2023-03-26T02:43:14.885Z,98829.55
2023-03-26T02:45:43.882Z,98824.94
2023-03-26T02:48:35.770Z,98824.35
2023-03-26T02:51:12.495Z,98822.75
2023-03-26T02:54:05.129Z,98819.89
2023-03-26T02:56:56.984Z,98820.05
2023-03-26T02:59:42.421Z,98824.41
2023-03-26T03:02:31.826Z,98815.30
2023-03-26T03:05:08.661Z,98808.56
2023-03-26T03:07:46.761Z,98807.81
2023-03-26T03:10:15.657Z,98800.04
2023-03-26T03:13:02.134Z,98800.10
2023-03-26T03:15:35.914Z,98796.23
2023-03-26T03:18:03.318Z,98797.40
2023-03-26T03:20:36.344Z,98795.34
2023-03-26T03:23:03.758Z,98793.91
2023-03-26T03:25:32.849Z,98786.63
2023-03-26T03:35:36.893Z,98777.99
2023-03-26T03:38:04.693Z,98776.36
2023-03-26T03:40:37.812Z,98766.06
2023-03-26T03:43:05.612Z,98762.98
2023-03-26T03:45:39.991Z,98767.63
2023-03-26T03:48:18.961Z,98763.50
2023-03-26T03:50:47.934Z,98769.52
2023-03-26T03:53:32.717Z,98763.55
2023-03-26T03:56:24.412Z,98769.95
2023-03-26T03:59:28.129Z,98764.17
2023-03-26T04:01:55.565Z,98768.76
2023-03-26T04:04:33.310Z,98762.24
2023-03-26T04:07:05.319Z,98748.49
2023-03-26T04:09:51.428Z,98758.21
2023-03-26T04:12:26.233Z,98764.29
2023-03-26T04:14:59.406Z,98773.81
2023-03-26T04:17:27.365Z,98774.34
2023-03-26T04:19:57.370Z,98779.33
2023-03-26T04:22:34.963Z,98774.45
2023-03-26T04:25:10.981Z,98770.96
2023-03-26T04:27:46.516Z,98775.19
2023-03-26T04:30:21.072Z,98772.34
2023-03-26T04:33:15.663Z,98771.11
2023-03-26T04:35:45.090Z,98772.16
2023-03-26T04:38:17.848Z,98771.91
2023-03-26T04:40:48.005Z,98767.77
2023-03-26T04:43:42.766Z,98765.07
2023-03-26T04:46:34.010Z,98765.69
2023-03-26T04:49:08.926Z,98766.33
2023-03-26T04:51:38.680Z,98771.17
2023-03-26T04:54:16.844Z,98776.05
2023-03-26T04:57:10.217Z,98769.70
2023-03-26T04:59:45.969Z,98758.73
2023-03-26T05:02:16.187Z,98775.27
2023-03-26T05:04:50.163Z,98772.58
2023-03-26T05:07:20.410Z,98773.19
2023-03-26T05:09:50.733Z,98781.79
2023-03-26T05:12:36.530Z,98775.80
2023-03-26T05:15:08.371Z,98774.73
2023-03-26T05:17:54.213Z,98769.89
2023-03-26T05:20:30.717Z,98770.58
2023-03-26T05:22:59.705Z,98771.32
2023-03-26T05:25:29.852Z,98773.27
2023-03-26T05:27:57.627Z,98767.38
2023-03-26T05:30:30.067Z,98777.22
2023-03-26T05:33:05.699Z,98768.05
2023-03-26T05:35:42.724Z,98771.87
2023-03-26T05:38:10.476Z,98773.67
2023-03-26T05:40:38.231Z,98768.42
2023-03-26T05:43:12.938Z,98774.46
2023-03-26T05:45:54.721Z,98777.55
2023-03-26T05:48:28.061Z,98776.44
2023-03-26T05:50:57.126Z,98778.19
2023-03-26T05:53:28.437Z,98781.52
2023-03-26T05:56:31.668Z,98782.90
2023-03-26T05:59:28.603Z,98784.52
2023-03-26T06:02:16.008Z,98783.48
2023-03-26T06:05:08.120Z,98789.99
2023-03-26T06:07:49.790Z,98777.98
2023-03-26T06:10:21.240Z,98778.70
2023-03-26T06:12:49.998Z,98777.39
2023-03-26T06:15:19.415Z,98784.84
2023-03-26T06:18:01.858Z,98789.30
2023-03-26T06:28:24.882Z,98786.11
2023-03-26T06:31:12.917Z,98780.04
2023-03-26T06:33:49.248Z,98774.85
2023-03-26T06:36:18.386Z,98781.82
2023-03-26T06:38:48.912Z,98778.20
2023-03-26T06:41:17.426Z,98788.83
2023-03-26T06:44:12.065Z,98777.77
2023-03-26T06:47:20.789Z,98771.79
2023-03-26T06:49:55.895Z,98780.41
2023-03-26T06:52:47.665Z,98782.40
2023-03-26T06:55:26.210Z,98779.98
2023-03-26T06:58:32.159Z,98778.98
2023-03-26T07:01:18.338Z,98788.55
2023-03-26T07:04:04.996Z,98779.35
2023-03-26T07:06:50.949Z,98788.05
2023-03-26T07:09:38.644Z,98777.64
2023-03-26T07:12:44.081Z,98781.34
2023-03-26T07:15:20.774Z,98774.44
2023-03-26T07:18:11.874Z,98779.04
2023-03-26T07:20:42.609Z,98778.75
2023-03-26T07:23:12.463Z,98774.15
2023-03-26T07:25:55.777Z,98780.29
2023-03-26T07:28:42.866Z,98777.92
2023-03-26T07:32:04.602Z,98777.58
2023-03-26T07:34:39.323Z,98781.84
2023-03-26T07:38:09.362Z,98774.20
2023-03-26T07:40:52.922Z,98774.14
2023-03-26T07:43:58.614Z,98779.28
2023-03-26T07:47:01.993Z,98781.24
2023-03-26T07:49:37.858Z,98775.06
2023-03-26T07:52:26.731Z,98779.20
2023-03-26T08:01:54.144Z,98773.81
2023-03-26T08:04:31.193Z,98774.41
2023-03-26T08:07:47.305Z,98766.40
2023-03-26T08:10:24.940Z,98767.11
2023-03-26T08:13:15.803Z,98765.20
2023-03-26T08:16:16.948Z,98756.24
2023-03-26T08:19:33.565Z,98756.44
2023-03-26T08:22:12.303Z,98776.06
2023-03-26T08:24:59.759Z,98764.57
2023-03-26T08:27:41.866Z,98769.86
2023-03-26T08:30:28.472Z,98767.13
2023-03-26T08:32:58.808Z,98763.26
2023-03-26T08:35:28.692Z,98771.29
2023-03-26T08:37:55.899Z,98775.72
2023-03-26T08:41:01.637Z,98771.02
2023-03-26T08:44:00.117Z,98757.95
2023-03-26T08:46:56.099Z,98766.70
2023-03-26T08:49:32.317Z,98759.52
2023-03-26T08:52:35.119Z,98760.70
2023-03-26T08:55:21.237Z,98770.48
2023-03-26T08:57:59.731Z,98764.29
2023-03-26T09:00:57.211Z,98753.91
2023-03-26T09:03:43.777Z,98752.67
2023-03-26T09:06:13.976Z,98745.52
2023-03-26T09:08:57.354Z,98746.65
2023-03-26T09:11:48.106Z,98742.09
2023-03-26T09:14:53.907Z,98741.98
2023-03-26T09:17:58.066Z,98746.27
2023-03-26T09:20:26.500Z,98738.49
2023-03-26T09:23:09.678Z,98735.52
2023-03-26T09:25:45.851Z,98736.96
2023-03-26T09:28:32.874Z,98733.27
2023-03-26T09:31:21.016Z,98730.98
2023-03-26T09:34:06.782Z,98727.33
2023-03-26T09:36:54.044Z,98725.15
2023-03-26T09:39:36.832Z,98734.14
2023-03-26T09:42:23.453Z,98728.44
2023-03-26T09:45:01.524Z,98724.73
2023-03-26T09:47:36.751Z,98722.35
2023-03-26T09:50:32.502Z,98725.06
2023-03-26T09:53:13.960Z,98718.25
2023-03-26T09:56:05.252Z,98713.38
2023-03-26T09:59:01.277Z,98710.19
2023-03-26T10:01:32.516Z,98711.10
2023-03-26T10:04:33.567Z,98706.91
2023-03-26T10:07:01.553Z,98704.92
2023-03-26T10:09:57.839Z,98704.55
2023-03-26T10:12:33.255Z,98702.74
2023-03-26T10:15:19.919Z,98702.52
2023-03-26T10:18:27.314Z,98696.86
2023-03-26T10:21:17.197Z,98691.65
2023-03-26T10:23:51.160Z,98699.38
2023-03-26T10:27:08.799Z,98691.28
2023-03-26T10:29:59.726Z,98695.73
2023-03-26T10:32:52.503Z,98692.73
2023-03-26T10:35:46.052Z,98693.73
2023-03-26T10:38:29.263Z,98694.45
2023-03-26T10:41:04.625Z,98697.58
2023-03-26T10:44:08.070Z,98693.49
2023-03-26T10:47:14.724Z,98688.16
2023-03-26T10:49:56.439Z,98685.95
2023-03-26T10:52:25.806Z,98683.13
2023-03-26T10:55:20.274Z,98680.05
2023-03-26T10:57:56.209Z,98679.54
2023-03-26T11:00:29.111Z,98675.90
2023-03-26T11:03:16.582Z,98670.25
2023-03-26T11:06:10.391Z,98659.98
2023-03-26T11:08:47.043Z,98659.45
2023-03-26T11:11:27.411Z,98660.36
2023-03-26T11:14:08.880Z,98657.45
2023-03-26T11:17:39.639Z,98651.13
2023-03-26T11:20:13.548Z,98647.65
2023-03-26T11:22:46.474Z,98650.73
2023-03-26T11:25:26.797Z,98649.77
2023-03-26T11:28:26.681Z,98653.58
2023-03-26T11:31:21.397Z,98652.98
2023-03-26T11:33:52.128Z,98661.02
2023-03-26T11:36:22.825Z,98652.59
2023-03-26T11:38:50.936Z,98650.10
2023-03-26T11:41:27.150Z,98652.58
2023-03-26T11:44:04.034Z,98653.27
2023-03-26T11:46:33.602Z,98649.05
2023-03-26T11:49:03.242Z,98641.63
2023-03-26T11:51:34.689Z,98642.77
2023-03-26T11:54:03.251Z,98646.65
2023-03-26T11:57:08.637Z,98647.73
2023-03-26T11:59:56.651Z,98644.84
2023-03-26T12:02:36.112Z,98649.36
2023-03-26T12:05:15.445Z,98646.35
2023-03-26T12:07:58.047Z,98642.35
2023-03-26T12:10:38.252Z,98649.52
2023-03-26T12:13:44.064Z,98645.16
2023-03-26T12:16:17.965Z,98650.81
2023-03-26T12:18:46.103Z,98639.88
2023-03-26T12:21:18.728Z,98637.71
2023-03-26T12:24:01.463Z,98630.22
2023-03-26T12:26:41.435Z,98631.15
2023-03-26T12:29:13.188Z,98636.40
2023-03-26T12:31:58.200Z,98638.39
2023-03-26T12:34:35.627Z,98630.65
2023-03-26T12:37:03.677Z,98632.10
2023-03-26T12:40:06.971Z,98634.56
2023-03-26T12:44:55.537Z,98626.52
2023-03-26T12:45:23.841Z,98640.17
2023-03-26T12:47:58.451Z,98626.37
2023-03-26T12:50:36.577Z,98631.36
2023-03-26T12:53:33.988Z,98625.19
2023-03-26T12:56:13.389Z,98625.33
2023-03-26T12:58:52.071Z,98620.30
2023-03-26T13:01:28.950Z,98618.89
2023-03-26T13:04:14.574Z,98625.32
2023-03-26T13:07:00.657Z,98623.86
2023-03-26T13:09:48.068Z,98612.30
2023-03-26T13:12:30.995Z,98611.29
2023-03-26T13:15:22.054Z,98614.83
2023-03-26T13:18:08.340Z,98608.05
2023-03-26T13:20:55.913Z,98612.29
2023-03-26T13:23:46.857Z,98610.33
2023-03-26T13:26:32.006Z,98608.46
2023-03-26T13:29:28.852Z,98610.95
2023-03-26T13:32:18.634Z,98607.45
2023-03-26T13:35:13.848Z,98606.44
2023-03-26T13:37:47.568Z,98608.78
2023-03-26T13:40:22.314Z,98609.08
2023-03-26T13:43:12.242Z,98604.61
2023-03-26T13:45:55.101Z,98600.73
2023-03-26T13:52:20.010Z,98602.25
2023-03-26T13:54:54.825Z,98607.05
2023-03-26T13:57:32.018Z,98607.11
2023-03-26T14:00:14.038Z,98613.24
2023-03-26T14:02:47.987Z,98607.77
2023-03-26T14:05:27.579Z,98602.94
2023-03-26T14:08:06.407Z,98598.64
2023-03-26T14:10:38.109Z,98601.40
2023-03-26T14:13:09.685Z,98596.02
2023-03-26T14:15:44.644Z,98596.92
2023-03-26T14:18:18.881Z,98601.35
2023-03-26T14:27:36.305Z,98596.33
2023-03-26T14:30:31.522Z,98598.23
2023-03-26T14:33:12.001Z,98594.16
2023-03-26T14:35:58.768Z,98592.79
2023-03-26T14:38:34.165Z,98592.32
2023-03-26T14:41:21.984Z,98590.51
2023-03-26T14:44:03.974Z,98585.64
2023-03-26T14:46:37.715Z,98590.05
2023-03-26T14:49:29.108Z,98589.55
2023-03-26T14:52:09.915Z,98583.15
2023-03-26T14:54:44.202Z,98581.78
2023-03-26T14:57:43.195Z,98582.54
2023-03-26T15:00:20.589Z,98581.55
2023-03-26T15:03:11.850Z,98587.21
2023-03-26T15:05:57.563Z,98587.75
2023-03-26T15:08:44.709Z,98583.81
2023-03-26T15:11:36.294Z,98583.66
2023-03-26T15:14:28.721Z,98586.09
2023-03-26T15:17:18.490Z,98586.27
2023-03-26T15:19:53.712Z,98583.50
2023-03-26T15:22:55.158Z,98584.84
2023-03-26T15:25:44.116Z,98581.34
2023-03-26T15:28:35.040Z,98578.20
2023-03-26T15:31:18.876Z,98581.15
2023-03-26T15:34:25.994Z,98584.15
2023-03-26T15:37:22.727Z,98586.33
2023-03-26T15:40:09.758Z,98583.07
2023-03-26T15:43:04.264Z,98588.42
2023-03-26T15:45:39.977Z,98586.11
2023-03-26T15:48:13.429Z,98582.77
2023-03-26T15:51:02.856Z,98577.89
2023-03-26T15:53:36.786Z,98577.63
2023-03-26T15:56:11.300Z,98576.68
2023-03-26T15:58:55.975Z,98572.02
2023-03-26T16:01:46.479Z,98569.95
2023-03-26T16:04:18.370Z,98571.23
2023-03-26T16:07:22.231Z,98574.73
2023-03-26T16:10:11.109Z,98572.81
2023-03-26T16:13:16.793Z,98572.77
2023-03-26T16:15:58.171Z,98567.88
2023-03-26T16:18:35.013Z,98566.56
2023-03-26T16:21:31.390Z,98566.09
2023-03-26T16:24:06.543Z,98561.36
2023-03-26T16:27:06.128Z,98560.86
2023-03-26T16:29:34.488Z,98564.36
2023-03-26T16:32:07.145Z,98564.77
2023-03-26T16:34:53.001Z,98564.69
2023-03-26T16:37:42.188Z,98572.98
2023-03-26T16:40:22.928Z,98571.97
2023-03-26T16:43:03.207Z,98573.77
2023-03-26T16:45:51.756Z,98574.44
2023-03-26T16:48:37.600Z,98583.00
2023-03-26T16:51:32.017Z,98567.60
2023-03-26T16:54:46.978Z,98569.50
2023-03-26T16:57:26.331Z,98571.48
2023-03-26T17:00:05.370Z,98569.33
2023-03-26T17:02:45.960Z,98568.63
2023-03-26T17:05:42.237Z,98572.35
2023-03-26T17:08:35.966Z,98573.98
2023-03-26T17:11:23.021Z,98576.20
2023-03-26T17:14:13.209Z,98575.98
2023-03-26T17:16:46.063Z,98579.35
2023-03-26T17:19:20.006Z,98580.48
2023-03-26T17:22:00.256Z,98584.80
2023-03-26T17:24:51.247Z,98589.98
2023-03-26T17:27:52.540Z,98586.86
2023-03-26T17:30:49.980Z,98588.79
2023-03-26T17:33:31.240Z,98586.41
2023-03-26T17:36:29.045Z,98583.23
2023-03-26T17:39:18.721Z,98582.79
2023-03-26T17:41:51.147Z,98580.92
2023-03-26T17:44:49.241Z,98585.27
2023-03-26T17:47:39.589Z,98585.11
2023-03-26T17:50:10.520Z,98582.20
2023-03-26T17:53:02.321Z,98578.50
2023-03-26T17:55:31.873Z,98568.64
2023-03-26T17:58:22.930Z,98568.16
2023-03-26T18:00:51.644Z,98569.64
2023-03-26T18:03:21.472Z,98571.08
2023-03-26T18:05:49.478Z,98571.34
2023-03-26T18:08:37.776Z,98575.07
2023-03-26T18:11:27.543Z,98576.08
2023-03-26T18:14:35.794Z,98577.27
2023-03-26T18:17:03.354Z,98571.64
2023-03-26T18:19:32.856Z,98567.23
2023-03-26T18:22:04.116Z,98565.39
2023-03-26T18:24:33.082Z,98568.25
2023-03-26T19:25:39.222Z,98575.53
2023-03-26T19:28:07.366Z,98574.48
2023-03-26T19:30:36.192Z,98569.50
2023-03-26T19:33:12.506Z,98565.27
2023-03-26T19:35:54.912Z,98562.75
2023-03-26T19:38:28.602Z,98559.70
2023-03-26T19:40:56.771Z,98555.35
2023-03-26T19:43:26.801Z,98559.13
2023-03-26T19:46:05.014Z,98558.01
2023-03-26T19:48:46.316Z,98555.26
2023-03-26T19:51:21.166Z,98556.80
2023-03-26T19:53:53.906Z,98560.79
2023-03-26T19:56:22.220Z,98558.98
2023-03-26T19:58:52.830Z,98555.64
2023-03-26T20:01:24.788Z,98551.92
2023-03-26T20:03:58.254Z,98552.52
2023-03-26T20:06:41.810Z,98553.20
2023-03-26T20:09:11.635Z,98554.30
2023-03-26T20:11:39.977Z,98552.07
2023-03-26T20:14:16.865Z,98549.77
2023-03-26T20:16:45.557Z,98548.96
2023-03-26T20:19:14.847Z,98544.42
2023-03-26T20:21:46.775Z,98549.61
2023-03-26T20:24:17.828Z,98550.33
2023-03-26T20:26:45.832Z,98547.66
2023-03-26T20:29:14.915Z,98546.23
2023-03-26T20:31:42.603Z,98546.30
2023-03-26T20:34:16.631Z,98543.17
2023-03-26T20:36:44.311Z,98538.99
2023-03-26T20:39:13.472Z,98541.48
2023-03-26T20:41:47.876Z,98543.40
2023-03-26T20:51:49.046Z,98533.90
2023-03-26T20:54:24.247Z,98537.61
2023-03-26T20:56:52.646Z,98537.89
2023-03-26T20:59:23.060Z,98531.70
2023-03-26T21:01:51.559Z,98532.04
2023-03-26T21:04:19.426Z,98529.27
2023-03-26T21:06:47.071Z,98528.39
2023-03-26T21:09:17.813Z,98521.31
2023-03-26T21:11:52.658Z,98521.36
2023-03-26T21:14:25.602Z,98518.39
2023-03-26T21:16:53.777Z,98518.43
2023-03-26T21:19:21.612Z,98518.60
2023-03-26T21:22:04.906Z,98512.99
2023-03-26T21:24:52.347Z,98515.41
2023-03-26T21:27:30.218Z,98510.71
2023-03-26T21:29:58.300Z,98505.32
2023-03-26T21:32:26.251Z,98502.42
2023-03-26T21:34:59.308Z,98502.52
2023-03-26T21:37:27.846Z,98504.47
2023-03-26T21:39:55.410Z,98499.49
2023-03-26T21:42:27.139Z,98497.18
2023-03-26T21:44:55.016Z,98496.78
2023-03-26T21:47:22.693Z,98494.35
2023-03-26T21:49:52.469Z,98494.15
2023-03-26T21:52:20.081Z,98492.50
2023-03-26T21:54:48.059Z,98490.39
2023-03-26T21:57:38.638Z,98487.44
2023-03-26T22:00:15.341Z,98488.01
2023-03-26T22:02:47.060Z,98485.84
2023-03-26T22:05:16.631Z,98491.50
2023-03-26T22:07:59.038Z,98488.17
2023-03-26T22:10:27.356Z,98487.53
2023-03-26T22:12:54.522Z,98488.59
2023-03-26T22:15:22.598Z,98485.52
2023-03-26T22:17:54.263Z,98484.36
2023-03-26T22:20:27.013Z,98485.95
2023-03-26T22:22:55.371Z,98485.79
2023-03-26T22:25:23.391Z,98481.92
2023-03-26T22:27:54.121Z,98479.96
2023-03-26T22:30:21.384Z,98480.16
2023-03-26T22:32:49.029Z,98477.77
2023-03-26T22:35:17.086Z,98480.02
2023-03-26T22:37:44.515Z,98476.61
2023-03-26T22:40:14.791Z,98480.24
2023-03-26T22:42:42.319Z,98482.31
2023-03-26T22:45:12.759Z,98479.98
2023-03-26T22:47:40.444Z,98477.66
2023-03-26T22:50:08.695Z,98477.75
2023-03-26T22:52:37.392Z,98474.17
2023-03-26T22:55:05.585Z,98469.20
2023-03-26T22:57:32.589Z,98468.23
2023-03-26T23:00:12.337Z,98466.76
2023-03-26T23:02:41.271Z,98461.95
2023-03-26T23:05:10.826Z,98462.16
2023-03-26T23:08:14.898Z,98460.55
2023-03-26T23:10:42.077Z,98461.77
2023-03-26T23:13:10.086Z,98463.24
2023-03-26T23:15:37.527Z,98467.80
2023-03-26T23:18:04.193Z,98464.90
2023-03-26T23:20:37.461Z,98461.13
2023-03-26T23:23:04.620Z,98457.22
2023-03-26T23:25:32.499Z,98459.27
2023-03-26T23:28:00.048Z,98456.52
2023-03-26T23:30:27.073Z,98459.23
2023-03-26T23:32:56.830Z,98465.30
2023-03-26T23:35:23.672Z,98460.27
2023-03-26T23:37:50.356Z,98455.41
2023-03-26T23:40:17.287Z,98452.76
2023-03-26T23:42:43.672Z,98452.62
2023-03-26T23:45:12.415Z,98449.40
2023-03-26T23:47:41.514Z,98445.58
2023-03-26T23:50:12.716Z,98442.56
2023-03-26T23:52:44.979Z,98447.55
2023-03-26T23:55:11.278Z,98444.27
2023-03-26T23:57:37.816Z,98445.11
